Air Navigation Services of Czech Republic  
Last data update:  01.04.2020 00:41:27 UTC česká verze
   METEO Page displayed:  01.04.2020 00:42:41 UTC  
help
METAR EDDB 010020Z 23007KT CAVOK M03/M08 Q1025 NOSIG=
METAR EDDC 010020Z 19005KT CAVOK M04/M08 Q1025=
METAR EDDE 010020Z 21007KT CAVOK M04/M09 Q1025=
METAR EDDF 010020Z 06006KT CAVOK 00/M08 Q1025 NOSIG=
METAR EDDM 010020Z 05004KT CAVOK M03/M06 Q1023 NOSIG=
METAR EDDN 010020Z VRB01KT CAVOK M04/M09 Q1025=
METAR EDDP 010020Z 21006KT CAVOK M03/M08 Q1026 NOSIG=
METAR EDDT 010020Z 25007KT CAVOK M02/M07 Q1025=
METAR EDQM NIL
METAR EPBY 010030Z 23008KT CAVOK M04/M09 Q1023=
METAR EPGD 010030Z 24010KT CAVOK M01/M07 Q1018 R11/290095=
METAR EPKK 010030Z VRB01KT 3500 BR FEW060 M03/M03 Q1024=
METAR EPKT 010030Z VRB01KT 2000 0300NW R27/2000N BCFG BR NSC M06/M06 Q1024=
METAR EPLL 010030Z VRB01KT CAVOK M05/M08 Q1024=
METAR EPPO 010030Z 23004KT CAVOK M03/M07 Q1024=
METAR EPRZ 010030Z 25006KT CAVOK M04/M06 Q1024=
METAR EPWA 010030Z 23004KT 200V260 CAVOK M03/M06 Q1023 NOSIG=
METAR EPWR 010030Z VRB01KT CAVOK M05/M07 Q1026=
METAR LHBP 010030Z AUTO 07002KT 9999 NCD M04/M09 Q1023 NOSIG=
METAR LHSM 010015Z AUTO 35008KT 9000 NCD M01/M04 Q1024=
METAR LKBC 010030Z AUTO 00000KT 9999 FEW048 M04/M06 Q1024=
METAR LKCV 010030Z 11003KT CAVOK M04/M06 Q1026 NOSIG RMK BLU BLU=
METAR LKKB 010030Z 14001KT CAVOK M04/M07 Q1025 RMK BLU=
METAR LKKU NIL
METAR LKKV 010000Z 08002KT CAVOK M07/M11 Q1024 RMK REG QNH 1020=
METAR LKLN 010030Z AUTO 00000KT CAVOK M05/M08 Q1025=
METAR LKMT 010030Z 00000KT CAVOK M04/M06 Q1025 NOSIG RMK REG QNH 1020=
METAR LKNA 010030Z 31003KT CAVOK M05/M07 Q1024 RMK BLU=
METAR LKPD 010000Z 00000KT CAVOK M04/M07 Q1026 RMK BLU=
METAR LKPJ 010030Z AUTO 29005KT CAVOK M03/M06 Q1025=
METAR LKPR 010030Z 22004KT CAVOK M04/M08 Q1025 NOSIG RMK REG QNH 1020=
METAR LKTB 010030Z 32005KT CAVOK M02/M06 Q1025 NOSIG RMK REG QNH 1020=
METAR LKVO NIL
METAR LOWI 010020Z AUTO VRB01KT 9999 NCD M03/M06 Q1023=
METAR LOWL 010020Z 12004KT 9999 FEW035 SCT069 M01/M03 Q1025 NOSIG=
METAR LOWS 010020Z AUTO 16004KT 9999 NCD M03/M04 Q1024=
METAR LOWW 010020Z 32008KT CAVOK M02/M04 Q1025 NOSIG=
METAR LZIB 010030Z 27002KT CAVOK M00/M05 Q1025=
METAR LZKZ 010030Z 36007KT CAVOK M01/M09 Q1024=
METAR LZMC NIL
METAR LZPP 010030Z AUTO 02003KT 9999 NCD M04/M06 Q1025=
METAR LZSL 010030Z VRB01KT CAVOK M05/M08 Q1024=
METAR LZTT 010030Z 27006KT 9999 FEW050 M07/M11 Q1022=
METAR LZZI 010030Z VRB02KT CAVOK M04/M06 Q1024=